Time;durP1;ratioP1;P1;durP2;ratioP2;P2;SDS_P1;SDS_P2;PMS_P1;PMS_P2;Temp;Humidity;BMP_temperature;BMP_pressure;BME280_temperature;BME280_humidity;BME280_pressure;Samples;Min_cycle;Max_cycle;Signal;HPM_P1;HPM_P2
2023/03/06 07:00:29;;;;;;;;;40.25;33.00;;;;;4.91;62.54;100623.31;5290150;23;46853;-73
2023/03/06 07:02:54;;;;;;;;;36.75;34.25;;;;;4.84;62.55;100616.00;4947182;28;44924;-72
2023/03/06 07:05:20;;;;;;;;;51.75;37.00;;;;;4.85;63.00;100622.19;4957406;28;53836;-73
2023/03/06 07:07:45;;;;;;;;;37.25;32.00;;;;;4.76;62.96;100611.28;4951231;28;45444;-74
2023/03/06 07:10:13;;;;;;;;;36.25;33.50;;;;;4.83;63.68;100622.09;4954716;28;45256;-72
2023/03/06 07:12:39;;;;;;;;;47.00;37.00;;;;;4.71;63.53;100600.63;4949413;28;45423;-72
2023/03/06 07:15:05;;;;;;;;;43.50;33.75;;;;;4.72;62.57;100599.78;4952901;28;45379;-72
2023/03/06 07:17:31;;;;;;;;;43.50;36.75;;;;;4.83;64.34;100627.31;4954418;28;45375;-73
2023/03/06 07:19:56;;;;;;;;;37.75;36.00;;;;;4.85;63.08;100623.06;4956196;28;45276;-73
2023/03/06 07:22:22;;;;;;;;;37.75;32.25;;;;;4.79;63.46;100622.81;4947316;28;45360;-73
2023/03/06 07:24:47;;;;;;;;;39.00;34.25;;;;;4.80;63.02;100616.72;4953787;28;45368;-72
2023/03/06 07:27:12;;;;;;;;;42.50;33.75;;;;;4.81;64.14;100626.34;4937448;28;45252;-72
2023/03/06 07:29:38;;;;;;;;;31.00;29.75;;;;;4.75;63.35;100613.00;4956250;28;45579;-72
2023/03/06 07:32:03;;;;;;;;;40.50;32.75;;;;;4.75;63.83;100609.50;4939410;28;45713;-72
2023/03/06 07:34:28;;;;;;;;;40.00;33.75;;;;;4.82;64.27;100625.56;4954259;28;45385;-72
2023/03/06 07:36:54;;;;;;;;;45.00;35.50;;;;;4.79;63.12;100617.56;4953787;28;45390;-72
2023/03/06 07:39:19;;;;;;;;;46.25;34.00;;;;;4.81;64.75;100618.50;4945412;28;45683;-72
2023/03/06 07:41:44;;;;;;;;;35.50;30.00;;;;;4.89;63.27;100624.09;4959118;28;46286;-72
2023/03/06 07:44:10;;;;;;;;;39.25;35.00;;;;;4.85;63.15;100624.78;4959568;28;45242;-73
2023/03/06 07:46:35;;;;;;;;;42.00;33.00;;;;;4.86;63.57;100629.19;4944014;28;45351;-72
2023/03/06 07:49:00;;;;;;;;;42.75;29.75;;;;;4.83;63.46;100616.84;4958778;28;45252;-72
2023/03/06 07:51:26;;;;;;;;;33.00;29.50;;;;;4.85;63.77;100615.22;4961011;28;45366;-74
2023/03/06 07:53:51;;;;;;;;;43.00;29.50;;;;;4.92;63.47;100622.50;4941802;28;44709;-72
2023/03/06 07:56:16;;;;;;;;;37.50;30.00;;;;;4.92;63.70;100629.47;4961088;28;45635;-72
2023/03/06 07:58:44;;;;;;;;;45.25;34.25;;;;;4.96;64.69;100633.09;4959973;28;45232;-72
2023/03/06 08:01:12;;;;;;;;;37.50;33.50;;;;;4.99;63.98;100639.38;4960195;28;46372;-73
2023/03/06 08:03:38;;;;;;;;;40.50;32.00;;;;;5.00;63.40;100632.41;4948664;28;44726;-70
2023/03/06 08:06:09;;;;;;;;;39.50;31.50;;;;;4.94;63.93;100618.22;4940430;28;45265;-72
2023/03/06 08:08:38;;;;;;;;;35.00;30.00;;;;;5.08;64.45;100642.41;4962670;28;45563;-71
2023/03/06 08:11:04;;;;;;;;;29.00;26.00;;;;;5.11;63.61;100636.41;4956608;28;46469;-71
2023/03/06 08:13:29;;;;;;;;;30.00;25.50;;;;;5.12;63.15;100632.94;4952620;28;45327;-72
2023/03/06 08:15:55;;;;;;;;;36.25;31.25;;;;;5.11;63.79;100628.53;4954843;28;45486;-72
2023/03/06 08:18:20;;;;;;;;;37.75;30.50;;;;;5.19;64.01;100639.38;4952538;28;45359;-73
2023/03/06 08:20:46;;;;;;;;;43.25;34.00;;;;;5.25;63.09;100637.91;4952304;28;45229;-72
2023/03/06 08:23:11;;;;;;;;;33.75;27.25;;;;;5.23;63.02;100628.16;4952689;28;45198;-71
2023/03/06 08:25:37;;;;;;;;;32.75;26.75;;;;;5.20;63.77;100626.31;4950539;28;45297;-73
2023/03/06 08:28:02;;;;;;;;;43.50;30.75;;;;;5.25;64.41;100634.38;4939584;28;46359;-73
2023/03/06 08:30:28;;;;;;;;;34.00;26.75;;;;;5.30;64.02;100648.59;4955866;28;45446;-73
2023/03/06 08:32:54;;;;;;;;;37.00;27.00;;;;;5.30;64.05;100644.22;4952404;28;45168;-73
2023/03/06 08:35:19;;;;;;;;;33.50;29.75;;;;;5.31;63.09;100645.13;4953736;28;45462;-72
2023/03/06 08:37:44;;;;;;;;;30.00;26.50;;;;;5.42;63.38;100649.09;4952568;28;46335;-73
2023/03/06 08:40:10;;;;;;;;;28.00;26.00;;;;;5.48;63.45;100651.97;4950015;28;45331;-72
2023/03/06 08:42:36;;;;;;;;;27.25;27.25;;;;;5.53;63.13;100650.44;4959981;28;45437;-73
2023/03/06 08:45:01;;;;;;;;;22.75;19.50;;;;;5.56;62.69;100647.94;4949458;28;45222;-72
2023/03/06 08:47:26;;;;;;;;;31.50;26.25;;;;;5.63;62.77;100657.00;4952144;28;45486;-72
2023/03/06 08:49:52;;;;;;;;;33.00;29.75;;;;;5.67;63.41;100644.88;4952671;28;46298;-73
2023/03/06 08:52:18;;;;;;;;;31.25;27.50;;;;;5.79;62.76;100651.50;4959687;28;45420;-72
2023/03/06 08:54:44;;;;;;;;;31.50;28.25;;;;;5.88;62.77;100644.84;4951150;28;45441;-73
2023/03/06 08:57:09;;;;;;;;;39.50;29.75;;;;;5.97;63.01;100658.41;4954115;28;45690;-73
2023/03/06 08:59:35;;;;;;;;;37.75;32.00;;;;;5.82;62.83;100620.19;4958678;28;45389;-72
2023/03/06 09:02:00;;;;;;;;;31.25;28.00;;;;;6.10;62.59;100646.66;4958064;28;44818;-74
2023/03/06 09:04:29;;;;;;;;;37.75;29.50;;;;;6.10;62.13;100639.66;4956850;28;45529;-72
2023/03/06 09:06:55;;;;;;;;;35.25;29.50;;;;;6.23;62.50;100649.81;4956486;28;45588;-72
2023/03/06 09:09:20;;;;;;;;;29.25;22.00;;;;;6.35;61.87;100648.50;4954917;28;45966;-72
2023/03/06 09:11:45;;;;;;;;;36.25;28.25;;;;;6.43;62.46;100640.09;4959802;28;44696;-72
2023/03/06 09:14:11;;;;;;;;;35.75;27.75;;;;;6.61;61.44;100645.16;4958460;28;45489;-71
2023/03/06 09:16:36;;;;;;;;;38.25;27.25;;;;;6.71;61.06;100630.63;4942336;28;45693;-73
2023/03/06 09:19:03;;;;;;;;;34.75;26.25;;;;;6.81;61.53;100640.66;4957851;28;45322;-72
2023/03/06 09:21:28;;;;;;;;;34.50;31.00;;;;;6.97;60.87;100651.72;4957717;28;45485;-73
2023/03/06 09:23:54;;;;;;;;;30.75;24.75;;;;;7.09;61.43;100646.91;4929606;28;45340;-73
2023/03/06 09:26:20;;;;;;;;;35.00;27.50;;;;;6.93;60.80;100611.28;4958437;28;45223;-72
2023/03/06 09:28:45;;;;;;;;;37.25;31.00;;;;;7.11;61.16;100635.63;4954843;28;45736;-72
2023/03/06 09:31:14;;;;;;;;;37.50;26.50;;;;;7.30;60.79;100638.88;4959736;28;45304;-71
2023/03/06 09:33:40;;;;;;;;;29.25;24.75;;;;;7.38;59.87;100647.94;4953808;28;45325;-72
2023/03/06 09:36:06;;;;;;;;;34.00;28.75;;;;;7.45;60.30;100646.38;4955982;28;45327;-71
2023/03/06 09:38:32;;;;;;;;;37.50;31.00;;;;;7.53;59.28;100644.91;4953893;28;45405;-73
2023/03/06 09:41:00;;;;;;;;;32.00;28.00;;;;;7.69;59.91;100659.50;4958929;28;45267;-72
2023/03/06 09:43:40;;;;;;;;;33.25;28.50;;;;;7.76;59.41;100658.88;4954540;28;45172;-72
2023/03/06 09:46:35;;;;;;;;;33.25;27.00;;;;;7.92;59.87;100660.25;4949701;28;45517;-73
2023/03/06 09:49:31;;;;;;;;;31.25;28.25;;;;;8.05;59.21;100652.81;4916593;28;45525;-72
2023/03/06 09:52:05;;;;;;;;;29.25;27.50;;;;;8.21;57.92;100653.31;4952335;28;45400;-73
2023/03/06 09:54:44;;;;;;;;;33.25;27.75;;;;;8.34;58.29;100658.09;4932435;28;45507;-73
2023/03/06 09:57:21;;;;;;;;;32.25;28.00;;;;;8.50;57.67;100652.47;4952538;28;45312;-74
2023/03/06 09:59:50;;;;;;;;;27.50;25.50;;;;;8.57;57.48;100636.84;4944584;28;46225;-73
2023/03/06 10:02:25;;;;;;;;;28.00;22.50;;;;;8.80;56.53;100648.97;4958070;28;44764;-73
2023/03/06 10:04:58;;;;;;;;;27.50;26.50;;;;;8.93;57.84;100644.94;4951875;28;45476;-72
2023/03/06 10:07:55;;;;;;;;;29.75;26.50;;;;;9.16;56.32;100653.50;4942402;28;47346;-72
2023/03/06 10:10:24;;;;;;;;;25.75;25.25;;;;;9.30;55.91;100643.31;4932094;28;45367;-73
2023/03/06 10:13:10;;;;;;;;;27.50;24.25;;;;;9.41;55.15;100637.47;4944023;28;45296;-73
2023/03/06 10:15:40;;;;;;;;;28.75;23.25;;;;;9.51;54.83;100635.06;4958304;28;45363;-72
2023/03/06 10:18:05;;;;;;;;;27.50;23.00;;;;;9.70;55.40;100634.69;4960342;28;45407;-73
2023/03/06 10:20:39;;;;;;;;;24.75;23.50;;;;;9.87;54.21;100629.84;4960445;28;45405;-73
2023/03/06 10:23:23;;;;;;;;;27.75;23.00;;;;;10.14;50.56;100639.25;4953575;28;45275;-72
2023/03/06 10:25:55;;;;;;;;;23.25;21.50;;;;;10.36;51.00;100624.81;4956664;28;45522;-72
2023/03/06 10:28:35;;;;;;;;;24.50;22.50;;;;;10.45;51.03;100607.44;4952266;28;45360;-72
2023/03/06 10:31:09;;;;;;;;;19.75;16.25;;;;;10.61;52.33;100628.88;4956964;28;45283;-73
2023/03/06 10:33:52;;;;;;;;;26.25;17.50;;;;;10.53;52.07;100612.91;4951270;28;45394;-73
2023/03/06 10:36:19;;;;;;;;;26.25;17.50;;;;;10.57;48.15;100627.06;4955238;28;45667;-73
2023/03/06 10:38:47;;;;;;;;;21.25;18.00;;;;;10.53;50.74;100627.00;4938350;28;45414;-73
2023/03/06 10:41:12;;;;;;;;;25.00;20.50;;;;;10.47;50.42;100624.22;4957661;28;45379;-74
2023/03/06 10:44:05;;;;;;;;;23.00;16.50;;;;;10.39;48.58;100614.31;4955423;28;45293;-74
2023/03/06 10:46:42;;;;;;;;;20.25;19.50;;;;;10.36;48.22;100632.75;4954909;28;45454;-74
2023/03/06 10:49:27;;;;;;;;;21.25;18.25;;;;;10.28;48.31;100635.25;4957095;28;46353;-74
2023/03/06 10:52:20;;;;;;;;;20.75;18.50;;;;;10.18;47.22;100626.16;4957465;28;45440;-73
2023/03/06 10:54:46;;;;;;;;;25.50;18.75;;;;;10.14;48.29;100620.75;4950794;28;44852;-73
2023/03/06 10:57:23;;;;;;;;;19.00;17.50;;;;;10.11;47.14;100628.63;4953307;28;45388;-74
2023/03/06 11:00:05;;;;;;;;;24.25;21.00;;;;;10.10;47.72;100617.16;4941954;28;46259;-73
2023/03/06 11:02:39;;;;;;;;;20.75;20.75;;;;;10.14;47.96;100626.97;4960307;28;45382;-74
2023/03/06 11:05:16;;;;;;;;;21.25;18.50;;;;;10.14;46.09;100620.75;4956001;28;45489;-73
2023/03/06 11:07:53;;;;;;;;;20.50;18.00;;;;;10.17;47.48;100620.88;4949032;28;45488;-75
2023/03/06 11:10:19;;;;;;;;;21.25;21.00;;;;;10.16;48.71;100606.75;4955064;28;45312;-73
2023/03/06 11:13:15;;;;;;;;;23.00;19.00;;;;;10.16;46.83;100608.50;4958217;28;45220;-73
2023/03/06 11:15:57;;;;;;;;;26.25;20.25;;;;;10.14;47.10;100607.56;4940318;28;44744;-74
2023/03/06 11:18:33;;;;;;;;;27.50;20.00;;;;;10.13;48.13;100606.66;4956401;28;45301;-72
2023/03/06 11:21:01;;;;;;;;;23.25;19.50;;;;;10.05;45.81;100595.94;4957856;28;46007;-74
2023/03/06 11:23:38;;;;;;;;;25.25;21.75;;;;;10.02;47.46;100593.22;4957591;28;45320;-74
2023/03/06 11:26:15;;;;;;;;;21.75;16.25;;;;;10.13;49.10;100601.38;4957445;28;45407;-73
2023/03/06 11:28:55;;;;;;;;;22.25;18.75;;;;;10.08;47.80;100603.03;4943159;28;45299;-73
2023/03/06 11:31:25;;;;;;;;;22.00;19.25;;;;;10.01;48.46;100598.47;4961273;28;45695;-73
2023/03/06 11:33:51;;;;;;;;;19.00;16.25;;;;;10.01;48.37;100601.13;4956039;28;45410;-74
2023/03/06 11:36:53;;;;;;;;;25.75;20.00;;;;;10.02;48.87;100606.41;4960963;28;45472;-72
2023/03/06 11:39:36;;;;;;;;;20.75;19.50;;;;;10.09;49.10;100594.25;4924543;28;45338;-72
2023/03/06 11:42:43;;;;;;;;;22.50;18.25;;;;;10.19;47.97;100603.28;4939738;28;45814;-72
2023/03/06 11:45:32;;;;;;;;;19.00;18.25;;;;;10.28;47.79;100599.16;4941195;28;46615;-74
2023/03/06 11:48:08;;;;;;;;;20.75;18.50;;;;;10.37;44.79;100598.44;4960211;28;45457;-72
2023/03/06 11:50:38;;;;;;;;;19.25;19.25;;;;;10.45;45.68;100602.16;4960127;28;45262;-73
2023/03/06 11:53:16;;;;;;;;;20.00;16.00;;;;;10.52;46.26;100593.47;4955545;28;45477;-73
2023/03/06 11:55:50;;;;;;;;;17.50;16.75;;;;;10.50;46.70;100595.22;4959331;28;46281;-73
2023/03/06 11:58:43;;;;;;;;;21.75;14.00;;;;;10.44;46.24;100597.69;4936487;28;44863;-73
2023/03/06 12:01:23;;;;;;;;;22.50;19.25;;;;;10.37;45.69;100597.56;4941449;28;45277;-74
2023/03/06 12:04:16;;;;;;;;;20.00;16.00;;;;;10.35;45.33;100596.63;4942885;28;45816;-73
2023/03/06 12:07:29;;;;;;;;;24.50;21.00;;;;;10.27;46.85;100599.09;4953868;28;45349;-72
2023/03/06 12:10:15;;;;;;;;;39.50;31.00;;;;;10.26;46.34;100592.00;4900248;28;45426;-72
2023/03/06 12:13:10;;;;;;;;;20.00;19.50;;;;;10.22;48.30;100595.41;4958752;28;45347;-72
2023/03/06 12:16:11;;;;;;;;;22.75;19.00;;;;;10.13;47.97;100589.94;4955931;28;45701;-72
2023/03/06 12:19:14;;;;;;;;;28.25;20.75;;;;;9.99;48.19;100589.63;4943688;28;45207;-72
2023/03/06 12:21:46;;;;;;;;;22.00;20.50;;;;;9.86;48.41;100577.91;4954910;28;45351;-72
2023/03/06 12:24:54;;;;;;;;;21.25;18.50;;;;;9.71;47.80;100570.47;4942732;28;45279;-72
2023/03/06 12:27:31;;;;;;;;;25.75;22.00;;;;;9.61;48.73;100571.13;4931219;28;45488;-72
2023/03/06 12:30:19;;;;;;;;;27.00;20.75;;;;;9.55;47.86;100568.31;4950930;28;45479;-72
2023/03/06 12:33:13;;;;;;;;;31.50;27.00;;;;;9.53;48.92;100565.66;4953736;28;45485;-73
2023/03/06 12:35:55;;;;;;;;;29.00;20.25;;;;;9.50;48.77;100562.06;4955742;28;45432;-72
2023/03/06 12:38:37;;;;;;;;;23.75;21.25;;;;;9.42;48.97;100551.31;4945849;28;45534;-74
2023/03/06 12:41:27;;;;;;;;;33.50;25.50;;;;;9.49;48.44;100550.59;4953500;28;45688;-72
2023/03/06 12:44:26;;;;;;;;;27.25;19.75;;;;;9.52;48.52;100561.25;4950153;28;45380;-73
2023/03/06 12:47:06;;;;;;;;;28.25;22.75;;;;;9.54;48.81;100556.00;4931429;28;45418;-73
2023/03/06 12:49:37;;;;;;;;;26.25;25.25;;;;;9.54;48.90;100556.88;4939021;28;45416;-73
2023/03/06 12:52:05;;;;;;;;;17.25;16.50;;;;;9.44;49.21;100536.44;4955404;28;45302;-73
2023/03/06 12:54:36;;;;;;;;;25.50;21.25;;;;;9.59;49.27;100557.00;4954800;28;45252;-73
2023/03/06 12:57:02;;;;;;;;;29.00;27.50;;;;;9.56;49.80;100541.09;4937918;28;45385;-73
2023/03/06 12:59:46;;;;;;;;;25.50;21.25;;;;;9.62;49.64;100555.31;4953202;28;44841;-73
2023/03/06 13:02:48;;;;;;;;;30.25;24.50;;;;;9.63;49.61;100557.13;4953107;28;45579;-73
2023/03/06 13:05:35;;;;;;;;;31.25;21.50;;;;;9.59;49.68;100557.88;4950019;28;45168;-73
2023/03/06 13:08:22;;;;;;;;;30.00;21.00;;;;;9.52;49.46;100545.41;4945699;28;45475;-73
2023/03/06 13:11:21;;;;;;;;;22.00;22.00;;;;;9.54;49.21;100551.59;4956243;28;45428;-73
2023/03/06 13:13:48;;;;;;;;;19.00;14.25;;;;;9.49;50.33;100540.03;4959492;28;46578;-73
2023/03/06 13:16:33;;;;;;;;;26.50;19.00;;;;;9.45;50.32;100534.66;4958655;28;45542;-73
2023/03/06 13:19:31;;;;;;;;;24.25;21.00;;;;;9.48;50.03;100547.94;4949967;28;45354;-74
2023/03/06 13:21:56;;;;;;;;;25.50;20.50;;;;;9.40;50.69;100531.91;4926928;28;45401;-74
2023/03/06 13:24:33;;;;;;;;;24.00;22.00;;;;;9.28;50.22;100527.22;4947090;28;45485;-74
2023/03/06 13:27:04;;;;;;;;;23.25;22.75;;;;;9.30;51.18;100530.81;4956618;28;45439;-73
2023/03/06 13:29:36;;;;;;;;;30.25;22.00;;;;;9.27;50.64;100533.38;4956948;28;45670;-73
2023/03/06 13:32:01;;;;;;;;;23.25;18.00;;;;;9.25;50.60;100532.44;4958057;28;45514;-73
2023/03/06 13:34:38;;;;;;;;;34.00;29.50;;;;;9.22;51.50;100528.84;4956313;28;46660;-73
2023/03/06 13:37:16;;;;;;;;;22.50;18.75;;;;;9.17;51.14;100531.34;4954197;28;45228;-73
2023/03/06 13:39:59;;;;;;;;;28.00;23.25;;;;;9.13;50.88;100525.09;4956894;28;45503;-74
2023/03/06 13:42:57;;;;;;;;;23.75;22.00;;;;;9.13;51.03;100527.75;4951434;28;45226;-73
2023/03/06 13:45:24;;;;;;;;;31.00;26.75;;;;;9.04;51.29;100514.28;4939300;28;45412;-73
2023/03/06 13:47:52;;;;;;;;;27.00;22.75;;;;;9.03;51.32;100517.81;4948580;28;45282;-72
2023/03/06 13:50:24;;;;;;;;;26.25;21.25;;;;;9.05;51.53;100523.13;4956481;28;45552;-73
2023/03/06 13:52:58;;;;;;;;;37.50;27.00;;;;;9.03;51.09;100524.81;4951820;28;45260;-72
2023/03/06 13:55:35;;;;;;;;;28.75;26.00;;;;;8.96;51.75;100513.19;4955679;28;46397;-71
2023/03/06 13:58:17;;;;;;;;;25.50;23.25;;;;;9.03;51.52;100523.06;4949215;28;45854;-72
2023/03/06 14:00:55;;;;;;;;;29.50;23.75;;;;;9.08;51.59;100526.72;4956880;28;45295;-74
2023/03/06 14:03:35;;;;;;;;;31.00;25.50;;;;;9.04;51.98;100501.13;4960872;28;45459;-73
2023/03/06 14:06:00;;;;;;;;;22.75;22.25;;;;;9.14;51.54;100513.69;4959506;28;45331;-72
2023/03/06 14:08:29;;;;;;;;;31.25;21.75;;;;;9.18;51.75;100510.25;4957737;28;45243;-73
2023/03/06 14:11:14;;;;;;;;;28.50;24.00;;;;;9.19;51.59;100509.44;4961346;28;45259;-73
2023/03/06 14:13:51;;;;;;;;;22.00;20.00;;;;;9.06;50.91;100482.72;4960097;28;45263;-72
2023/03/06 14:16:20;;;;;;;;;26.75;23.00;;;;;9.27;51.52;100513.97;4960979;28;45347;-72
2023/03/06 14:18:50;;;;;;;;;26.25;24.00;;;;;9.28;51.41;100514.03;4952467;28;45344;-72
2023/03/06 14:21:29;;;;;;;;;19.50;19.50;;;;;9.28;51.55;100505.25;4957999;28;45288;-72
2023/03/06 14:24:03;;;;;;;;;19.50;17.75;;;;;9.34;51.31;100508.91;4951697;28;45260;-73
2023/03/06 14:26:39;;;;;;;;;23.50;19.50;;;;;9.23;50.98;100504.22;4941158;28;45453;-73
2023/03/06 14:29:20;;;;;;;;;23.50;19.00;;;;;9.24;51.83;100514.81;4932781;28;45557;-72
2023/03/06 14:31:49;;;;;;;;;15.75;15.75;;;;;9.25;51.28;100508.69;4954940;28;45367;-72
2023/03/06 14:34:20;;;;;;;;;22.00;18.50;;;;;9.21;51.99;100505.94;4960367;28;45261;-74
2023/03/06 14:36:48;;;;;;;;;25.00;24.00;;;;;9.13;51.90;100498.72;4955391;28;45389;-74
2023/03/06 14:39:20;;;;;;;;;25.75;24.00;;;;;9.08;52.01;100491.56;4949839;28;45375;-73
2023/03/06 14:41:46;;;;;;;;;17.00;17.00;;;;;9.13;52.31;100504.00;4952630;28;46227;-73
2023/03/06 14:44:22;;;;;;;;;25.25;22.50;;;;;9.16;52.22;100508.47;4949297;28;45243;-74
2023/03/06 14:46:50;;;;;;;;;24.75;21.25;;;;;9.16;52.44;100498.81;4950090;28;45334;-72
2023/03/06 14:49:18;;;;;;;;;21.00;19.25;;;;;9.10;52.24;100489.84;4949700;28;45399;-74
2023/03/06 14:51:52;;;;;;;;;21.00;21.00;;;;;9.09;51.93;100488.06;4944534;28;45308;-74
2023/03/06 14:54:23;;;;;;;;;20.75;16.50;;;;;9.14;51.97;100492.59;4955187;28;45252;-72
2023/03/06 14:56:52;;;;;;;;;23.00;17.25;;;;;9.18;52.00;100499.72;4953312;28;46173;-74
2023/03/06 14:59:24;;;;;;;;;20.00;17.75;;;;;9.25;51.93;100498.16;4948675;28;45316;-73
2023/03/06 15:01:52;;;;;;;;;26.75;20.50;;;;;9.27;52.22;100492.88;4961567;28;45312;-72
2023/03/06 15:04:35;;;;;;;;;25.00;17.50;;;;;9.25;51.67;100487.59;4953596;28;45333;-74
2023/03/06 15:07:08;;;;;;;;;20.50;17.00;;;;;9.38;52.02;100492.31;4950806;28;46031;-73
2023/03/06 15:09:36;;;;;;;;;21.50;18.00;;;;;9.35;52.12;100473.78;4952001;28;45450;-73
2023/03/06 15:12:20;;;;;;;;;23.25;19.50;;;;;9.51;52.61;100489.97;4962057;28;45416;-72
2023/03/06 15:15:02;;;;;;;;;25.25;21.50;;;;;9.56;52.31;100486.56;4950830;28;45381;-72
2023/03/06 15:17:36;;;;;;;;;17.25;14.25;;;;;9.59;52.43;100483.13;4960054;28;46458;-73
2023/03/06 15:20:07;;;;;;;;;20.75;18.50;;;;;9.61;51.42;100482.31;4952335;28;45323;-72
2023/03/06 15:22:38;;;;;;;;;18.00;17.50;;;;;9.61;52.27;100482.31;4939426;28;45290;-73
2023/03/06 15:25:21;;;;;;;;;23.00;19.00;;;;;9.63;52.09;100482.31;4961144;28;45538;-73
2023/03/06 15:28:02;;;;;;;;;18.50;14.25;;;;;9.64;52.40;100476.22;4951704;28;46940;-73
2023/03/06 15:30:35;;;;;;;;;17.75;16.00;;;;;9.64;52.79;100474.44;4954588;28;45267;-74
2023/03/06 15:33:18;;;;;;;;;16.50;12.75;;;;;9.64;52.18;100479.72;4951346;28;45367;-74
2023/03/06 15:35:55;;;;;;;;;13.75;11.25;;;;;9.63;51.68;100477.97;4960534;28;45441;-73
2023/03/06 15:38:40;;;;;;;;;15.50;13.50;;;;;9.60;51.86;100474.34;4955522;28;45305;-74
2023/03/06 15:41:18;;;;;;;;;14.25;13.25;;;;;9.64;52.23;100473.56;4954525;28;45311;-74
2023/03/06 15:43:44;;;;;;;;;15.00;12.00;;;;;9.61;51.68;100465.59;4948164;28;45359;-73
2023/03/06 15:46:10;;;;;;;;;15.50;14.00;;;;;9.61;51.03;100470.84;4954028;28;45495;-73
2023/03/06 15:48:35;;;;;;;;;10.75;10.25;;;;;9.55;51.62;100449.59;4948759;28;45182;-74
2023/03/06 15:51:01;;;;;;;;;15.50;13.00;;;;;9.57;50.64;100464.59;4960585;28;45260;-73
2023/03/06 15:53:27;;;;;;;;;10.50;10.50;;;;;9.53;51.37;100468.03;4945118;28;45363;-74
2023/03/06 15:55:53;;;;;;;;;13.50;12.25;;;;;9.52;50.70;100463.63;4957765;28;45570;-73
2023/03/06 15:58:22;;;;;;;;;18.00;16.75;;;;;9.51;50.83;100453.91;4943949;28;45194;-73
2023/03/06 16:00:48;;;;;;;;;14.25;13.00;;;;;9.41;51.18;100444.91;4955223;28;45441;-73
2023/03/06 16:03:13;;;;;;;;;18.25;14.50;;;;;9.41;50.35;100449.31;4956347;28;45455;-74
2023/03/06 16:05:39;;;;;;;;;12.75;12.75;;;;;9.45;50.97;100460.81;4953104;28;45410;-74
2023/03/06 16:08:05;;;;;;;;;11.00;10.25;;;;;9.34;50.73;100445.59;4945009;28;47335;-73
2023/03/06 16:10:34;;;;;;;;;11.50;9.00;;;;;9.40;50.84;100455.41;4959970;28;45086;-73
2023/03/06 16:13:07;;;;;;;;;12.50;10.00;;;;;9.37;51.00;100450.94;4955622;28;45447;-73
2023/03/06 16:15:43;;;;;;;;;13.75;11.75;;;;;9.38;51.06;100449.19;4931918;28;45249;-73
2023/03/06 16:18:11;;;;;;;;;10.75;9.00;;;;;9.37;49.84;100450.06;4953407;28;46277;-72
2023/03/06 16:20:37;;;;;;;;;7.75;7.75;;;;;9.28;50.92;100432.28;4954155;28;45261;-72
2023/03/06 16:23:06;;;;;;;;;9.25;9.00;;;;;9.25;50.44;100434.84;4939249;28;44713;-72
2023/03/06 16:25:32;;;;;;;;;7.00;7.00;;;;;9.25;50.82;100437.50;4955855;28;45411;-72
2023/03/06 16:27:58;;;;;;;;;12.00;9.00;;;;;9.23;50.62;100444.47;4960335;28;45344;-72
2023/03/06 16:30:29;;;;;;;;;9.50;9.00;;;;;9.23;51.31;100452.38;4957755;28;45283;-73
2023/03/06 16:32:56;;;;;;;;;11.25;9.25;;;;;9.19;50.05;100445.25;4958776;28;45240;-72
2023/03/06 16:35:21;;;;;;;;;11.00;10.00;;;;;9.19;50.96;100439.97;4958140;28;45324;-73
2023/03/06 16:37:47;;;;;;;;;9.75;8.75;;;;;9.15;50.39;100436.34;4947385;28;46221;-73
2023/03/06 16:40:18;;;;;;;;;12.25;12.00;;;;;9.15;50.36;100443.38;4948872;28;45458;-74
2023/03/06 16:42:44;;;;;;;;;9.75;9.00;;;;;9.10;50.30;100435.38;4953590;28;45337;-74
2023/03/06 16:45:10;;;;;;;;;9.75;8.75;;;;;9.05;50.42;100428.22;4956369;28;44740;-74
2023/03/06 16:47:35;;;;;;;;;7.25;7.25;;;;;9.10;50.24;100434.47;4960340;28;45329;-73
2023/03/06 16:50:02;;;;;;;;;9.25;9.25;;;;;9.09;50.99;100430.94;4956492;28;45407;-74
2023/03/06 16:52:27;;;;;;;;;11.75;8.75;;;;;9.04;51.11;100431.69;4957641;28;45403;-73
2023/03/06 16:54:52;;;;;;;;;9.00;9.00;;;;;8.78;51.15;100389.75;4955276;28;45146;-73
2023/03/06 16:57:18;;;;;;;;;9.75;8.75;;;;;8.89;50.25;100417.28;4943881;28;47263;-73
2023/03/06 16:59:43;;;;;;;;;9.75;7.75;;;;;8.94;51.13;100427.94;4955358;28;45450;-72
2023/03/06 17:02:10;;;;;;;;;10.50;8.50;;;;;8.93;50.23;100432.34;4960599;28;45157;-72
2023/03/06 17:04:35;;;;;;;;;15.25;8.50;;;;;8.71;50.33;100390.44;4955012;28;45561;-73
2023/03/06 17:07:01;;;;;;;;;8.75;8.25;;;;;8.81;50.99;100408.28;4958777;28;47306;-74
2023/03/06 17:09:26;;;;;;;;;8.50;8.00;;;;;8.90;50.54;100429.59;4946339;28;44924;-72
2023/03/06 17:11:51;;;;;;;;;4.25;4.25;;;;;8.87;50.87;100428.63;4958954;28;45275;-73
2023/03/06 17:14:17;;;;;;;;;8.50;8.50;;;;;8.83;50.31;100432.94;4955662;28;45457;-73
2023/03/06 17:16:42;;;;;;;;;8.25;6.50;;;;;8.75;50.01;100413.41;4957302;28;45329;-72
2023/03/06 17:19:13;;;;;;;;;11.00;7.75;;;;;8.80;51.14;100430.22;4951978;28;45286;-74
2023/03/06 17:21:38;;;;;;;;;8.25;7.75;;;;;8.74;50.54;100419.53;4946226;28;44764;-73
2023/03/06 17:24:05;;;;;;;;;8.50;8.50;;;;;8.78;50.77;100431.94;4943541;28;45355;-73
2023/03/06 17:26:30;;;;;;;;;11.75;10.00;;;;;8.69;50.38;100408.88;4951681;28;47001;-74
2023/03/06 17:28:56;;;;;;;;;18.75;10.50;;;;;8.68;50.84;100415.00;4956225;28;45382;-74
2023/03/06 17:31:25;;;;;;;;;9.75;8.75;;;;;8.70;50.68;100422.94;4955710;28;45410;-74
2023/03/06 17:33:55;;;;;;;;;14.50;10.75;;;;;8.70;51.25;100423.81;4959243;28;46087;-74
2023/03/06 17:36:20;;;;;;;;;18.00;9.25;;;;;8.68;50.32;100425.53;4960138;28;45627;-72
2023/03/06 17:38:46;;;;;;;;;11.00;11.00;;;;;8.65;51.12;100421.91;4942216;28;45347;-71
2023/03/06 17:41:12;;;;;;;;;12.50;10.75;;;;;8.59;50.27;100420.00;4935908;28;45703;-74
2023/03/06 17:43:38;;;;;;;;;11.75;11.00;;;;;8.63;50.73;100421.00;4959800;28;45400;-74
2023/03/06 17:46:08;;;;;;;;;9.25;9.00;;;;;8.56;50.97;100426.94;4959478;28;45296;-74
2023/03/06 17:48:34;;;;;;;;;9.75;8.75;;;;;8.60;51.18;100428.81;4955844;28;45209;-74
2023/03/06 17:51:00;;;;;;;;;11.25;11.25;;;;;8.58;50.95;100435.78;4958338;28;45545;-74
2023/03/06 17:53:25;;;;;;;;;8.75;6.25;;;;;8.54;50.97;100420.75;4943569;28;45406;-73
2023/03/06 17:55:51;;;;;;;;;19.50;15.50;;;;;8.51;50.69;100425.09;4956106;28;45686;-74
2023/03/06 17:58:16;;;;;;;;;11.50;10.25;;;;;8.48;51.28;100413.56;4944346;28;45255;-74
2023/03/06 18:00:42;;;;;;;;;8.50;7.00;;;;;8.47;50.52;100420.59;4916369;28;45431;-74
2023/03/06 18:03:08;;;;;;;;;12.25;11.50;;;;;8.54;50.58;100419.00;4954631;28;45324;-74
2023/03/06 18:05:34;;;;;;;;;12.25;11.00;;;;;8.49;51.12;100418.00;4950992;28;45466;-73
2023/03/06 18:08:00;;;;;;;;;14.00;12.00;;;;;8.44;50.65;100409.97;4949632;28;45330;-74
2023/03/06 18:10:25;;;;;;;;;9.00;6.50;;;;;8.52;51.10;100426.00;4933168;28;45401;-73
2023/03/06 18:12:50;;;;;;;;;11.75;11.00;;;;;8.42;50.53;100409.03;4953869;28;45198;-73
2023/03/06 18:15:16;;;;;;;;;16.00;13.75;;;;;8.46;51.03;100416.19;4957346;28;45169;-74
2023/03/06 18:17:41;;;;;;;;;12.00;11.75;;;;;8.44;51.02;100407.34;4952787;28;45315;-74
2023/03/06 18:20:08;;;;;;;;;15.00;14.25;;;;;8.41;51.21;100416.91;4934950;28;45442;-73
2023/03/06 18:22:33;;;;;;;;;11.75;10.00;;;;;8.43;51.23;100410.84;4933574;28;45823;-72
2023/03/06 18:24:58;;;;;;;;;10.75;10.75;;;;;8.42;50.86;100418.69;4953381;28;45135;-73
2023/03/06 18:27:24;;;;;;;;;14.50;13.50;;;;;8.37;51.48;100410.63;4951184;28;45371;-71
2023/03/06 18:29:51;;;;;;;;;15.25;11.00;;;;;8.35;50.95;100407.06;4952105;28;45245;-74
2023/03/06 18:32:16;;;;;;;;;14.50;12.00;;;;;8.42;50.89;100419.56;4950774;28;45375;-75
2023/03/06 18:34:42;;;;;;;;;21.75;20.25;;;;;8.41;50.68;100423.06;4954573;28;45305;-73
2023/03/06 18:37:07;;;;;;;;;9.00;9.00;;;;;8.39;51.16;100414.22;4940602;28;54267;-72
2023/03/06 18:39:32;;;;;;;;;14.25;12.25;;;;;8.41;51.22;100417.78;4953552;28;45435;-71